sensor_id;sensor_type;location;lat;lon;timestamp;P1;durP1;ratioP1;P2;durP2;ratioP2
55290;SDS011;41155;39.768;2.712;2023-04-06T00:01:35;11.60;;;9.27;;
55290;SDS011;41155;39.768;2.712;2023-04-06T00:04:01;14.68;;;9.50;;
55290;SDS011;41155;39.768;2.712;2023-04-06T00:06:26;12.35;;;9.43;;
55290;SDS011;41155;39.768;2.712;2023-04-06T00:08:52;17.42;;;9.15;;
55290;SDS011;41155;39.768;2.712;2023-04-06T00:11:18;16.38;;;11.00;;
55290;SDS011;41155;39.768;2.712;2023-04-06T00:13:44;16.65;;;10.98;;
55290;SDS011;41155;39.768;2.712;2023-04-06T00:16:10;10.05;;;8.75;;
55290;SDS011;41155;39.768;2.712;2023-04-06T00:18:35;14.63;;;9.07;;
55290;SDS011;41155;39.768;2.712;2023-04-06T00:21:01;13.48;;;8.27;;
55290;SDS011;41155;39.768;2.712;2023-04-06T00:23:26;10.57;;;7.88;;
55290;SDS011;41155;39.768;2.712;2023-04-06T00:25:52;8.40;;;7.47;;
55290;SDS011;41155;39.768;2.712;2023-04-06T00:28:17;9.32;;;8.38;;
55290;SDS011;41155;39.768;2.712;2023-04-06T00:30:46;8.50;;;7.00;;
55290;SDS011;41155;39.768;2.712;2023-04-06T00:33:12;8.95;;;7.70;;
55290;SDS011;41155;39.768;2.712;2023-04-06T00:35:37;13.85;;;7.72;;
55290;SDS011;41155;39.768;2.712;2023-04-06T00:38:03;14.18;;;8.00;;
55290;SDS011;41155;39.768;2.712;2023-04-06T00:40:29;9.80;;;8.30;;
55290;SDS011;41155;39.768;2.712;2023-04-06T00:42:56;17.58;;;8.63;;
55290;SDS011;41155;39.768;2.712;2023-04-06T00:45:21;14.75;;;8.40;;
55290;SDS011;41155;39.768;2.712;2023-04-06T00:47:47;15.50;;;8.82;;
55290;SDS011;41155;39.768;2.712;2023-04-06T00:50:12;10.63;;;8.70;;
55290;SDS011;41155;39.768;2.712;2023-04-06T00:52:38;8.40;;;7.65;;
55290;SDS011;41155;39.768;2.712;2023-04-06T00:55:03;11.23;;;7.63;;
55290;SDS011;41155;39.768;2.712;2023-04-06T00:57:29;11.23;;;7.50;;
55290;SDS011;41155;39.768;2.712;2023-04-06T00:59:56;11.77;;;7.72;;
55290;SDS011;41155;39.768;2.712;2023-04-06T01:02:21;7.75;;;7.03;;
55290;SDS011;41155;39.768;2.712;2023-04-06T01:04:49;9.80;;;7.55;;
55290;SDS011;41155;39.768;2.712;2023-04-06T01:07:14;9.23;;;7.45;;
55290;SDS011;41155;39.768;2.712;2023-04-06T01:09:40;15.60;;;7.40;;
55290;SDS011;41155;39.768;2.712;2023-04-06T01:12:06;13.15;;;8.18;;
55290;SDS011;41155;39.768;2.712;2023-04-06T01:14:32;7.95;;;7.15;;
55290;SDS011;41155;39.768;2.712;2023-04-06T01:16:58;9.82;;;7.18;;
55290;SDS011;41155;39.768;2.712;2023-04-06T01:19:25;9.38;;;7.03;;
55290;SDS011;41155;39.768;2.712;2023-04-06T01:21:51;8.93;;;6.78;;
55290;SDS011;41155;39.768;2.712;2023-04-06T01:24:18;9.27;;;7.85;;
55290;SDS011;41155;39.768;2.712;2023-04-06T01:26:44;9.48;;;8.25;;
55290;SDS011;41155;39.768;2.712;2023-04-06T01:29:10;9.95;;;6.90;;
55290;SDS011;41155;39.768;2.712;2023-04-06T01:31:35;9.57;;;6.57;;
55290;SDS011;41155;39.768;2.712;2023-04-06T01:34:01;18.00;;;7.88;;
55290;SDS011;41155;39.768;2.712;2023-04-06T01:36:26;8.93;;;8.13;;
55290;SDS011;41155;39.768;2.712;2023-04-06T01:38:52;10.27;;;7.97;;
55290;SDS011;41155;39.768;2.712;2023-04-06T01:41:17;13.43;;;10.27;;
55290;SDS011;41155;39.768;2.712;2023-04-06T01:43:43;8.25;;;7.45;;
55290;SDS011;41155;39.768;2.712;2023-04-06T01:46:09;13.15;;;7.55;;
55290;SDS011;41155;39.768;2.712;2023-04-06T01:48:35;11.35;;;7.07;;
55290;SDS011;41155;39.768;2.712;2023-04-06T01:51:01;9.43;;;7.13;;
55290;SDS011;41155;39.768;2.712;2023-04-06T01:53:26;8.73;;;7.35;;
55290;SDS011;41155;39.768;2.712;2023-04-06T01:55:52;11.23;;;7.03;;
55290;SDS011;41155;39.768;2.712;2023-04-06T01:58:17;6.90;;;6.30;;
55290;SDS011;41155;39.768;2.712;2023-04-06T02:00:43;6.93;;;6.43;;
55290;SDS011;41155;39.768;2.712;2023-04-06T02:03:08;9.95;;;6.85;;
55290;SDS011;41155;39.768;2.712;2023-04-06T02:05:34;9.20;;;6.70;;
55290;SDS011;41155;39.768;2.712;2023-04-06T02:08:05;6.57;;;5.88;;
55290;SDS011;41155;39.768;2.712;2023-04-06T02:10:31;7.90;;;6.32;;
55290;SDS011;41155;39.768;2.712;2023-04-06T02:12:57;6.93;;;6.18;;
55290;SDS011;41155;39.768;2.712;2023-04-06T02:15:23;7.63;;;6.85;;
55290;SDS011;41155;39.768;2.712;2023-04-06T02:17:48;10.20;;;7.75;;
55290;SDS011;41155;39.768;2.712;2023-04-06T02:20:14;9.35;;;8.50;;
55290;SDS011;41155;39.768;2.712;2023-04-06T02:22:40;9.38;;;8.50;;
55290;SDS011;41155;39.768;2.712;2023-04-06T02:25:05;13.13;;;9.32;;
55290;SDS011;41155;39.768;2.712;2023-04-06T02:27:31;16.30;;;8.15;;
55290;SDS011;41155;39.768;2.712;2023-04-06T02:29:56;9.80;;;8.38;;
55290;SDS011;41155;39.768;2.712;2023-04-06T02:32:22;10.82;;;7.32;;
55290;SDS011;41155;39.768;2.712;2023-04-06T02:34:48;8.45;;;6.85;;
55290;SDS011;41155;39.768;2.712;2023-04-06T02:37:13;9.77;;;7.05;;
55290;SDS011;41155;39.768;2.712;2023-04-06T02:39:38;7.97;;;6.97;;
55290;SDS011;41155;39.768;2.712;2023-04-06T02:42:04;10.18;;;6.93;;
55290;SDS011;41155;39.768;2.712;2023-04-06T02:44:29;11.40;;;7.35;;
55290;SDS011;41155;39.768;2.712;2023-04-06T02:46:55;8.27;;;7.53;;
55290;SDS011;41155;39.768;2.712;2023-04-06T02:49:20;9.52;;;7.07;;
55290;SDS011;41155;39.768;2.712;2023-04-06T02:51:46;7.78;;;6.70;;
55290;SDS011;41155;39.768;2.712;2023-04-06T02:54:12;9.77;;;7.00;;
55290;SDS011;41155;39.768;2.712;2023-04-06T02:56:37;9.73;;;6.70;;
55290;SDS011;41155;39.768;2.712;2023-04-06T02:59:02;8.48;;;7.03;;
55290;SDS011;41155;39.768;2.712;2023-04-06T03:01:28;12.60;;;7.53;;
55290;SDS011;41155;39.768;2.712;2023-04-06T03:03:53;7.90;;;7.25;;
55290;SDS011;41155;39.768;2.712;2023-04-06T03:06:19;8.60;;;7.68;;
55290;SDS011;41155;39.768;2.712;2023-04-06T03:08:45;7.78;;;7.18;;
55290;SDS011;41155;39.768;2.712;2023-04-06T03:11:11;10.48;;;6.07;;
55290;SDS011;41155;39.768;2.712;2023-04-06T03:13:37;7.63;;;6.82;;
55290;SDS011;41155;39.768;2.712;2023-04-06T03:16:05;7.32;;;6.53;;
55290;SDS011;41155;39.768;2.712;2023-04-06T03:18:31;10.80;;;6.75;;
55290;SDS011;41155;39.768;2.712;2023-04-06T03:20:59;14.23;;;6.70;;
55290;SDS011;41155;39.768;2.712;2023-04-06T03:23:26;9.25;;;6.70;;
55290;SDS011;41155;39.768;2.712;2023-04-06T03:25:51;6.90;;;6.40;;
55290;SDS011;41155;39.768;2.712;2023-04-06T03:28:17;7.78;;;6.97;;
55290;SDS011;41155;39.768;2.712;2023-04-06T03:30:42;9.35;;;7.15;;
55290;SDS011;41155;39.768;2.712;2023-04-06T03:33:08;12.13;;;7.18;;
55290;SDS011;41155;39.768;2.712;2023-04-06T03:35:33;9.52;;;7.03;;
55290;SDS011;41155;39.768;2.712;2023-04-06T03:37:59;8.48;;;6.55;;
55290;SDS011;41155;39.768;2.712;2023-04-06T03:40:24;8.98;;;6.85;;
55290;SDS011;41155;39.768;2.712;2023-04-06T03:42:50;10.18;;;6.38;;
55290;SDS011;41155;39.768;2.712;2023-04-06T03:45:16;8.05;;;6.93;;
55290;SDS011;41155;39.768;2.712;2023-04-06T03:47:41;7.53;;;6.80;;
55290;SDS011;41155;39.768;2.712;2023-04-06T03:50:07;13.95;;;7.40;;
55290;SDS011;41155;39.768;2.712;2023-04-06T03:52:34;10.57;;;8.48;;
55290;SDS011;41155;39.768;2.712;2023-04-06T03:55:00;12.07;;;9.77;;
55290;SDS011;41155;39.768;2.712;2023-04-06T03:57:25;10.70;;;9.35;;
55290;SDS011;41155;39.768;2.712;2023-04-06T03:59:51;11.98;;;8.85;;
55290;SDS011;41155;39.768;2.712;2023-04-06T04:02:16;11.40;;;8.23;;
55290;SDS011;41155;39.768;2.712;2023-04-06T04:04:42;8.73;;;7.72;;
55290;SDS011;41155;39.768;2.712;2023-04-06T04:07:07;10.55;;;8.27;;
55290;SDS011;41155;39.768;2.712;2023-04-06T04:09:32;8.73;;;7.65;;
55290;SDS011;41155;39.768;2.712;2023-04-06T04:11:58;7.53;;;6.85;;
55290;SDS011;41155;39.768;2.712;2023-04-06T04:14:23;8.82;;;7.43;;
55290;SDS011;41155;39.768;2.712;2023-04-06T04:16:50;8.63;;;7.82;;
55290;SDS011;41155;39.768;2.712;2023-04-06T04:19:15;10.60;;;6.90;;
55290;SDS011;41155;39.768;2.712;2023-04-06T04:21:44;13.18;;;7.07;;
55290;SDS011;41155;39.768;2.712;2023-04-06T04:24:11;12.27;;;7.25;;
55290;SDS011;41155;39.768;2.712;2023-04-06T04:26:37;12.18;;;7.95;;
55290;SDS011;41155;39.768;2.712;2023-04-06T04:29:03;13.57;;;8.63;;
55290;SDS011;41155;39.768;2.712;2023-04-06T04:31:29;9.38;;;7.45;;
55290;SDS011;41155;39.768;2.712;2023-04-06T04:33:54;10.98;;;8.05;;
55290;SDS011;41155;39.768;2.712;2023-04-06T04:36:20;9.75;;;7.40;;
55290;SDS011;41155;39.768;2.712;2023-04-06T04:38:45;8.90;;;7.00;;
55290;SDS011;41155;39.768;2.712;2023-04-06T04:41:11;13.80;;;7.20;;
55290;SDS011;41155;39.768;2.712;2023-04-06T04:43:36;8.38;;;7.22;;
55290;SDS011;41155;39.768;2.712;2023-04-06T04:46:02;10.55;;;8.23;;
55290;SDS011;41155;39.768;2.712;2023-04-06T04:48:29;8.02;;;7.13;;
55290;SDS011;41155;39.768;2.712;2023-04-06T04:50:54;8.52;;;7.68;;
55290;SDS011;41155;39.768;2.712;2023-04-06T04:53:23;8.00;;;7.22;;
55290;SDS011;41155;39.768;2.712;2023-04-06T04:55:48;8.70;;;7.40;;
55290;SDS011;41155;39.768;2.712;2023-04-06T04:58:14;10.60;;;7.43;;
55290;SDS011;41155;39.768;2.712;2023-04-06T05:00:42;14.02;;;7.70;;
55290;SDS011;41155;39.768;2.712;2023-04-06T05:03:07;13.50;;;8.43;;
55290;SDS011;41155;39.768;2.712;2023-04-06T05:05:34;19.60;;;8.13;;
55290;SDS011;41155;39.768;2.712;2023-04-06T05:08:00;12.23;;;9.10;;
55290;SDS011;41155;39.768;2.712;2023-04-06T05:10:26;14.75;;;8.60;;
55290;SDS011;41155;39.768;2.712;2023-04-06T05:12:51;10.23;;;9.02;;
55290;SDS011;41155;39.768;2.712;2023-04-06T05:15:17;14.07;;;8.60;;
55290;SDS011;41155;39.768;2.712;2023-04-06T05:17:42;20.85;;;9.05;;
55290;SDS011;41155;39.768;2.712;2023-04-06T05:20:08;11.73;;;8.25;;
55290;SDS011;41155;39.768;2.712;2023-04-06T05:22:34;9.30;;;8.30;;
55290;SDS011;41155;39.768;2.712;2023-04-06T05:25:01;13.60;;;7.95;;
55290;SDS011;41155;39.768;2.712;2023-04-06T05:27:27;9.05;;;8.18;;
55290;SDS011;41155;39.768;2.712;2023-04-06T05:29:53;15.93;;;9.02;;
55290;SDS011;41155;39.768;2.712;2023-04-06T05:32:18;13.35;;;8.80;;
55290;SDS011;41155;39.768;2.712;2023-04-06T05:34:47;12.07;;;8.18;;
55290;SDS011;41155;39.768;2.712;2023-04-06T05:37:13;10.77;;;7.95;;
55290;SDS011;41155;39.768;2.712;2023-04-06T05:39:39;21.80;;;9.13;;
55290;SDS011;41155;39.768;2.712;2023-04-06T05:42:05;12.20;;;8.63;;
55290;SDS011;41155;39.768;2.712;2023-04-06T05:44:31;11.30;;;8.35;;
55290;SDS011;41155;39.768;2.712;2023-04-06T05:46:57;15.05;;;8.15;;
55290;SDS011;41155;39.768;2.712;2023-04-06T05:49:22;9.25;;;8.35;;
55290;SDS011;41155;39.768;2.712;2023-04-06T05:51:47;12.30;;;8.43;;
55290;SDS011;41155;39.768;2.712;2023-04-06T05:54:13;17.13;;;9.18;;
55290;SDS011;41155;39.768;2.712;2023-04-06T05:56:38;10.32;;;7.97;;
55290;SDS011;41155;39.768;2.712;2023-04-06T05:59:04;13.77;;;8.57;;
55290;SDS011;41155;39.768;2.712;2023-04-06T06:01:30;17.60;;;8.85;;
55290;SDS011;41155;39.768;2.712;2023-04-06T06:03:56;14.75;;;8.60;;
55290;SDS011;41155;39.768;2.712;2023-04-06T06:06:21;13.80;;;10.35;;
55290;SDS011;41155;39.768;2.712;2023-04-06T06:08:46;19.92;;;12.27;;
55290;SDS011;41155;39.768;2.712;2023-04-06T06:11:12;17.35;;;11.32;;
55290;SDS011;41155;39.768;2.712;2023-04-06T06:13:37;16.40;;;11.73;;
55290;SDS011;41155;39.768;2.712;2023-04-06T06:16:03;25.77;;;10.82;;
55290;SDS011;41155;39.768;2.712;2023-04-06T06:18:30;19.88;;;9.50;;
55290;SDS011;41155;39.768;2.712;2023-04-06T06:20:56;13.55;;;9.27;;
55290;SDS011;41155;39.768;2.712;2023-04-06T06:23:21;10.32;;;7.95;;
55290;SDS011;41155;39.768;2.712;2023-04-06T06:25:47;13.35;;;9.57;;
55290;SDS011;41155;39.768;2.712;2023-04-06T06:28:13;10.18;;;8.88;;
55290;SDS011;41155;39.768;2.712;2023-04-06T06:30:39;10.30;;;9.18;;
55290;SDS011;41155;39.768;2.712;2023-04-06T06:33:04;16.05;;;9.90;;
55290;SDS011;41155;39.768;2.712;2023-04-06T06:35:29;15.15;;;9.25;;
55290;SDS011;41155;39.768;2.712;2023-04-06T06:37:55;15.85;;;9.38;;
55290;SDS011;41155;39.768;2.712;2023-04-06T06:40:20;19.83;;;11.18;;
55290;SDS011;41155;39.768;2.712;2023-04-06T06:42:48;45.78;;;10.15;;
55290;SDS011;41155;39.768;2.712;2023-04-06T06:45:14;35.00;;;9.45;;
55290;SDS011;41155;39.768;2.712;2023-04-06T06:47:40;12.57;;;8.75;;
55290;SDS011;41155;39.768;2.712;2023-04-06T06:50:06;14.32;;;9.30;;
55290;SDS011;41155;39.768;2.712;2023-04-06T06:52:32;23.73;;;9.48;;
55290;SDS011;41155;39.768;2.712;2023-04-06T06:54:57;16.40;;;9.55;;
55290;SDS011;41155;39.768;2.712;2023-04-06T06:57:23;13.10;;;8.13;;
55290;SDS011;41155;39.768;2.712;2023-04-06T06:59:48;15.57;;;8.38;;
55290;SDS011;41155;39.768;2.712;2023-04-06T07:02:14;19.70;;;9.57;;
55290;SDS011;41155;39.768;2.712;2023-04-06T07:04:39;10.32;;;9.35;;
55290;SDS011;41155;39.768;2.712;2023-04-06T07:07:05;16.60;;;9.38;;
55290;SDS011;41155;39.768;2.712;2023-04-06T07:09:31;13.68;;;8.68;;
55290;SDS011;41155;39.768;2.712;2023-04-06T07:11:56;14.30;;;10.48;;
55290;SDS011;41155;39.768;2.712;2023-04-06T07:14:22;12.85;;;10.30;;
55290;SDS011;41155;39.768;2.712;2023-04-06T07:16:47;15.13;;;9.52;;
55290;SDS011;41155;39.768;2.712;2023-04-06T07:19:15;11.60;;;8.45;;
55290;SDS011;41155;39.768;2.712;2023-04-06T07:21:40;9.63;;;8.10;;
55290;SDS011;41155;39.768;2.712;2023-04-06T07:24:06;16.92;;;8.88;;
55290;SDS011;41155;39.768;2.712;2023-04-06T07:26:31;14.57;;;8.30;;
55290;SDS011;41155;39.768;2.712;2023-04-06T07:28:57;13.57;;;8.30;;
55290;SDS011;41155;39.768;2.712;2023-04-06T07:31:22;17.65;;;10.40;;
55290;SDS011;41155;39.768;2.712;2023-04-06T07:33:48;25.55;;;9.38;;
55290;SDS011;41155;39.768;2.712;2023-04-06T07:36:14;14.20;;;8.35;;
55290;SDS011;41155;39.768;2.712;2023-04-06T07:38:40;13.88;;;9.20;;
55290;SDS011;41155;39.768;2.712;2023-04-06T07:41:06;9.55;;;8.65;;
55290;SDS011;41155;39.768;2.712;2023-04-06T07:43:31;12.38;;;10.80;;
55290;SDS011;41155;39.768;2.712;2023-04-06T07:45:57;10.15;;;9.13;;
55290;SDS011;41155;39.768;2.712;2023-04-06T07:48:22;10.60;;;9.48;;
55290;SDS011;41155;39.768;2.712;2023-04-06T07:50:48;9.98;;;8.27;;
55290;SDS011;41155;39.768;2.712;2023-04-06T07:53:14;14.25;;;10.82;;
55290;SDS011;41155;39.768;2.712;2023-04-06T07:55:39;23.02;;;16.05;;
55290;SDS011;41155;39.768;2.712;2023-04-06T07:58:05;31.83;;;20.90;;
55290;SDS011;41155;39.768;2.712;2023-04-06T08:00:30;28.30;;;19.73;;
55290;SDS011;41155;39.768;2.712;2023-04-06T08:02:56;43.40;;;25.45;;
55290;SDS011;41155;39.768;2.712;2023-04-06T08:05:22;43.85;;;22.60;;
55290;SDS011;41155;39.768;2.712;2023-04-06T08:07:47;44.78;;;29.10;;
55290;SDS011;41155;39.768;2.712;2023-04-06T08:10:13;42.58;;;21.33;;
55290;SDS011;41155;39.768;2.712;2023-04-06T08:12:38;31.65;;;21.85;;
55290;SDS011;41155;39.768;2.712;2023-04-06T08:15:04;31.52;;;24.17;;
55290;SDS011;41155;39.768;2.712;2023-04-06T08:17:31;28.38;;;19.85;;
55290;SDS011;41155;39.768;2.712;2023-04-06T08:19:57;29.98;;;19.25;;
55290;SDS011;41155;39.768;2.712;2023-04-06T08:22:22;33.90;;;18.05;;
55290;SDS011;41155;39.768;2.712;2023-04-06T08:24:48;21.42;;;15.93;;
55290;SDS011;41155;39.768;2.712;2023-04-06T08:27:13;14.73;;;10.80;;
55290;SDS011;41155;39.768;2.712;2023-04-06T08:29:39;18.05;;;11.82;;
55290;SDS011;41155;39.768;2.712;2023-04-06T08:32:05;16.38;;;10.10;;
55290;SDS011;41155;39.768;2.712;2023-04-06T08:34:34;23.02;;;14.32;;
55290;SDS011;41155;39.768;2.712;2023-04-06T08:36:59;15.30;;;11.88;;
55290;SDS011;41155;39.768;2.712;2023-04-06T08:39:25;22.30;;;12.18;;
55290;SDS011;41155;39.768;2.712;2023-04-06T08:41:52;20.85;;;10.13;;
55290;SDS011;41155;39.768;2.712;2023-04-06T08:44:22;20.02;;;9.60;;
55290;SDS011;41155;39.768;2.712;2023-04-06T08:46:48;15.48;;;11.25;;
55290;SDS011;41155;39.768;2.712;2023-04-06T08:49:15;14.45;;;12.57;;
55290;SDS011;41155;39.768;2.712;2023-04-06T08:51:41;30.50;;;11.48;;
55290;SDS011;41155;39.768;2.712;2023-04-06T08:54:07;13.73;;;11.10;;
55290;SDS011;41155;39.768;2.712;2023-04-06T08:56:32;15.60;;;9.80;;
55290;SDS011;41155;39.768;2.712;2023-04-06T08:59:02;12.25;;;9.85;;
55290;SDS011;41155;39.768;2.712;2023-04-06T09:01:28;10.27;;;9.25;;
55290;SDS011;41155;39.768;2.712;2023-04-06T09:03:56;12.82;;;9.27;;
55290;SDS011;41155;39.768;2.712;2023-04-06T09:06:27;10.02;;;8.07;;
55290;SDS011;41155;39.768;2.712;2023-04-06T09:08:52;10.23;;;7.72;;
55290;SDS011;41155;39.768;2.712;2023-04-06T09:11:18;12.82;;;7.32;;
55290;SDS011;41155;39.768;2.712;2023-04-06T09:13:48;9.30;;;7.15;;
55290;SDS011;41155;39.768;2.712;2023-04-06T09:16:19;8.75;;;6.88;;
55290;SDS011;41155;39.768;2.712;2023-04-06T09:18:45;10.57;;;7.10;;
55290;SDS011;41155;39.768;2.712;2023-04-06T09:21:11;7.55;;;6.38;;
55290;SDS011;41155;39.768;2.712;2023-04-06T09:23:37;10.55;;;5.95;;
55290;SDS011;41155;39.768;2.712;2023-04-06T09:26:06;14.52;;;6.68;;
55290;SDS011;41155;39.768;2.712;2023-04-06T09:28:51;10.82;;;6.82;;
55290;SDS011;41155;39.768;2.712;2023-04-06T09:31:25;8.50;;;7.47;;
55290;SDS011;41155;39.768;2.712;2023-04-06T09:33:55;8.45;;;6.32;;
55290;SDS011;41155;39.768;2.712;2023-04-06T09:36:34;7.43;;;6.20;;
55290;SDS011;41155;39.768;2.712;2023-04-06T09:39:04;14.20;;;5.53;;
55290;SDS011;41155;39.768;2.712;2023-04-06T09:41:31;5.35;;;4.85;;
55290;SDS011;41155;39.768;2.712;2023-04-06T09:44:10;7.70;;;5.57;;
55290;SDS011;41155;39.768;2.712;2023-04-06T09:46:38;7.65;;;5.25;;
55290;SDS011;41155;39.768;2.712;2023-04-06T09:49:05;7.43;;;5.75;;
55290;SDS011;41155;39.768;2.712;2023-04-06T09:51:44;7.18;;;5.85;;
55290;SDS011;41155;39.768;2.712;2023-04-06T09:54:15;8.65;;;5.60;;
55290;SDS011;41155;39.768;2.712;2023-04-06T09:56:58;8.20;;;5.03;;
55290;SDS011;41155;39.768;2.712;2023-04-06T09:59:43;7.78;;;4.60;;
55290;SDS011;41155;39.768;2.712;2023-04-06T10:02:18;10.33;;;4.73;;
55290;SDS011;41155;39.768;2.712;2023-04-06T10:07:30;7.55;;;5.22;;
55290;SDS011;41155;39.768;2.712;2023-04-06T10:09:56;10.88;;;5.90;;
55290;SDS011;41155;39.768;2.712;2023-04-06T10:12:24;8.32;;;5.22;;
55290;SDS011;41155;39.768;2.712;2023-04-06T10:14:49;8.45;;;5.25;;
55290;SDS011;41155;39.768;2.712;2023-04-06T10:17:16;6.38;;;4.88;;
55290;SDS011;41155;39.768;2.712;2023-04-06T10:19:44;7.50;;;4.95;;
55290;SDS011;41155;39.768;2.712;2023-04-06T10:22:18;9.20;;;4.93;;
55290;SDS011;41155;39.768;2.712;2023-04-06T10:24:51;9.02;;;4.68;;
55290;SDS011;41155;39.768;2.712;2023-04-06T10:27:17;7.78;;;4.70;;
55290;SDS011;41155;39.768;2.712;2023-04-06T10:29:52;9.60;;;4.57;;
55290;SDS011;41155;39.768;2.712;2023-04-06T10:32:18;7.85;;;4.55;;
55290;SDS011;41155;39.768;2.712;2023-04-06T10:34:43;7.25;;;4.70;;
55290;SDS011;41155;39.768;2.712;2023-04-06T10:37:15;5.88;;;4.10;;
55290;SDS011;41155;39.768;2.712;2023-04-06T10:39:47;9.35;;;4.07;;
55290;SDS011;41155;39.768;2.712;2023-04-06T10:42:20;8.98;;;4.20;;
55290;SDS011;41155;39.768;2.712;2023-04-06T10:44:49;5.97;;;4.15;;
55290;SDS011;41155;39.768;2.712;2023-04-06T10:47:15;5.95;;;3.83;;
55290;SDS011;41155;39.768;2.712;2023-04-06T10:49:45;5.50;;;3.97;;
55290;SDS011;41155;39.768;2.712;2023-04-06T10:52:11;6.38;;;3.60;;
55290;SDS011;41155;39.768;2.712;2023-04-06T10:54:41;9.50;;;4.10;;
55290;SDS011;41155;39.768;2.712;2023-04-06T10:59:41;5.88;;;3.40;;
55290;SDS011;41155;39.768;2.712;2023-04-06T11:02:07;5.82;;;3.75;;
55290;SDS011;41155;39.768;2.712;2023-04-06T11:04:32;9.98;;;3.75;;
55290;SDS011;41155;39.768;2.712;2023-04-06T11:06:58;6.50;;;3.80;;
55290;SDS011;41155;39.768;2.712;2023-04-06T11:09:24;6.10;;;3.20;;
55290;SDS011;41155;39.768;2.712;2023-04-06T11:11:51;11.10;;;3.70;;
55290;SDS011;41155;39.768;2.712;2023-04-06T11:14:17;5.47;;;3.20;;
55290;SDS011;41155;39.768;2.712;2023-04-06T11:16:43;9.15;;;3.70;;
55290;SDS011;41155;39.768;2.712;2023-04-06T11:19:15;4.22;;;3.17;;
55290;SDS011;41155;39.768;2.712;2023-04-06T11:26:49;4.35;;;3.20;;
55290;SDS011;41155;39.768;2.712;2023-04-06T11:29:20;14.45;;;3.70;;
55290;SDS011;41155;39.768;2.712;2023-04-06T11:31:50;5.40;;;3.72;;
55290;SDS011;41155;39.768;2.712;2023-04-06T11:34:21;10.77;;;3.38;;
55290;SDS011;41155;39.768;2.712;2023-04-06T11:36:48;7.75;;;3.20;;
55290;SDS011;41155;39.768;2.712;2023-04-06T11:39:20;5.43;;;3.00;;
55290;SDS011;41155;39.768;2.712;2023-04-06T11:41:52;6.28;;;3.00;;
55290;SDS011;41155;39.768;2.712;2023-04-06T11:44:54;6.03;;;3.15;;
55290;SDS011;41155;39.768;2.712;2023-04-06T11:47:14;4.80;;;3.25;;
55290;SDS011;41155;39.768;2.712;2023-04-06T11:49:41;6.85;;;3.13;;
55290;SDS011;41155;39.768;2.712;2023-04-06T11:52:19;3.88;;;3.00;;
55290;SDS011;41155;39.768;2.712;2023-04-06T11:54:49;4.50;;;3.20;;
55290;SDS011;41155;39.768;2.712;2023-04-06T11:57:16;6.95;;;2.85;;
55290;SDS011;41155;39.768;2.712;2023-04-06T11:59:42;4.07;;;3.10;;
55290;SDS011;41155;39.768;2.712;2023-04-06T12:02:08;4.93;;;3.75;;
55290;SDS011;41155;39.768;2.712;2023-04-06T12:04:34;5.55;;;3.63;;
55290;SDS011;41155;39.768;2.712;2023-04-06T12:07:00;6.22;;;2.90;;
55290;SDS011;41155;39.768;2.712;2023-04-06T12:09:26;10.05;;;3.58;;
55290;SDS011;41155;39.768;2.712;2023-04-06T12:11:51;4.50;;;2.90;;
55290;SDS011;41155;39.768;2.712;2023-04-06T12:14:17;6.20;;;3.78;;
55290;SDS011;41155;39.768;2.712;2023-04-06T12:16:42;7.20;;;3.03;;
55290;SDS011;41155;39.768;2.712;2023-04-06T12:19:08;5.75;;;3.42;;
55290;SDS011;41155;39.768;2.712;2023-04-06T12:21:34;6.25;;;3.40;;
55290;SDS011;41155;39.768;2.712;2023-04-06T12:24:02;4.30;;;3.20;;
55290;SDS011;41155;39.768;2.712;2023-04-06T12:26:29;5.93;;;3.22;;
55290;SDS011;41155;39.768;2.712;2023-04-06T12:28:55;6.00;;;3.17;;
55290;SDS011;41155;39.768;2.712;2023-04-06T12:31:21;5.72;;;3.03;;
55290;SDS011;41155;39.768;2.712;2023-04-06T12:33:48;6.10;;;3.15;;
55290;SDS011;41155;39.768;2.712;2023-04-06T12:36:14;9.77;;;3.67;;
55290;SDS011;41155;39.768;2.712;2023-04-06T12:38:43;5.93;;;3.65;;
55290;SDS011;41155;39.768;2.712;2023-04-06T12:41:10;4.63;;;3.17;;
55290;SDS011;41155;39.768;2.712;2023-04-06T12:43:36;6.53;;;3.30;;
55290;SDS011;41155;39.768;2.712;2023-04-06T12:46:02;7.70;;;3.10;;
55290;SDS011;41155;39.768;2.712;2023-04-06T12:48:27;9.13;;;3.63;;
55290;SDS011;41155;39.768;2.712;2023-04-06T12:51:00;7.88;;;3.40;;
55290;SDS011;41155;39.768;2.712;2023-04-06T12:53:29;4.53;;;3.17;;
55290;SDS011;41155;39.768;2.712;2023-04-06T12:55:56;5.03;;;3.25;;
55290;SDS011;41155;39.768;2.712;2023-04-06T12:58:22;8.45;;;3.65;;
55290;SDS011;41155;39.768;2.712;2023-04-06T13:00:49;6.53;;;3.22;;
55290;SDS011;41155;39.768;2.712;2023-04-06T13:03:15;6.00;;;3.63;;
55290;SDS011;41155;39.768;2.712;2023-04-06T13:05:45;6.28;;;3.63;;
55290;SDS011;41155;39.768;2.712;2023-04-06T13:08:12;2.90;;;2.70;;
55290;SDS011;41155;39.768;2.712;2023-04-06T13:10:38;5.97;;;3.20;;
55290;SDS011;41155;39.768;2.712;2023-04-06T13:13:04;5.43;;;3.10;;
55290;SDS011;41155;39.768;2.712;2023-04-06T13:15:29;5.55;;;3.00;;
55290;SDS011;41155;39.768;2.712;2023-04-06T13:17:57;6.10;;;2.88;;
55290;SDS011;41155;39.768;2.712;2023-04-06T13:20:22;7.38;;;3.25;;
55290;SDS011;41155;39.768;2.712;2023-04-06T13:22:49;9.23;;;3.45;;
55290;SDS011;41155;39.768;2.712;2023-04-06T13:25:15;5.10;;;3.33;;
55290;SDS011;41155;39.768;2.712;2023-04-06T13:27:40;7.85;;;3.03;;
55290;SDS011;41155;39.768;2.712;2023-04-06T13:30:06;5.20;;;2.92;;
55290;SDS011;41155;39.768;2.712;2023-04-06T13:32:32;3.40;;;2.90;;
55290;SDS011;41155;39.768;2.712;2023-04-06T13:34:57;5.93;;;2.97;;
55290;SDS011;41155;39.768;2.712;2023-04-06T13:37:23;5.95;;;2.70;;
55290;SDS011;41155;39.768;2.712;2023-04-06T13:39:49;5.30;;;3.10;;
55290;SDS011;41155;39.768;2.712;2023-04-06T13:42:14;10.32;;;3.28;;
55290;SDS011;41155;39.768;2.712;2023-04-06T13:44:40;7.00;;;3.58;;
55290;SDS011;41155;39.768;2.712;2023-04-06T13:47:05;10.98;;;3.30;;
55290;SDS011;41155;39.768;2.712;2023-04-06T13:49:31;4.18;;;3.10;;
55290;SDS011;41155;39.768;2.712;2023-04-06T13:51:57;4.28;;;3.03;;
55290;SDS011;41155;39.768;2.712;2023-04-06T13:54:23;10.27;;;3.28;;
55290;SDS011;41155;39.768;2.712;2023-04-06T13:56:48;4.07;;;3.03;;
55290;SDS011;41155;39.768;2.712;2023-04-06T13:59:14;4.45;;;2.65;;
55290;SDS011;41155;39.768;2.712;2023-04-06T14:01:40;6.57;;;2.75;;
55290;SDS011;41155;39.768;2.712;2023-04-06T14:04:05;5.55;;;3.20;;
55290;SDS011;41155;39.768;2.712;2023-04-06T14:06:31;12.73;;;3.67;;
55290;SDS011;41155;39.768;2.712;2023-04-06T14:08:57;4.30;;;3.00;;
55290;SDS011;41155;39.768;2.712;2023-04-06T14:11:22;4.95;;;2.50;;
55290;SDS011;41155;39.768;2.712;2023-04-06T14:13:48;5.97;;;3.03;;
55290;SDS011;41155;39.768;2.712;2023-04-06T14:16:13;9.40;;;2.95;;
55290;SDS011;41155;39.768;2.712;2023-04-06T14:18:39;5.70;;;3.03;;
55290;SDS011;41155;39.768;2.712;2023-04-06T14:21:04;4.07;;;2.53;;
55290;SDS011;41155;39.768;2.712;2023-04-06T14:23:30;4.75;;;2.70;;
55290;SDS011;41155;39.768;2.712;2023-04-06T14:26:00;2.60;;;2.40;;
55290;SDS011;41155;39.768;2.712;2023-04-06T14:28:30;4.93;;;2.90;;
55290;SDS011;41155;39.768;2.712;2023-04-06T14:30:58;8.05;;;3.35;;
55290;SDS011;41155;39.768;2.712;2023-04-06T14:33:25;6.20;;;3.17;;
55290;SDS011;41155;39.768;2.712;2023-04-06T14:35:51;10.95;;;3.53;;
55290;SDS011;41155;39.768;2.712;2023-04-06T14:38:17;3.38;;;2.63;;
55290;SDS011;41155;39.768;2.712;2023-04-06T14:40:42;3.85;;;3.10;;
55290;SDS011;41155;39.768;2.712;2023-04-06T14:43:08;3.30;;;2.50;;
55290;SDS011;41155;39.768;2.712;2023-04-06T14:45:33;8.13;;;2.78;;
55290;SDS011;41155;39.768;2.712;2023-04-06T14:48:01;8.43;;;3.83;;